Time;durP1;ratioP1;P1;durP2;ratioP2;P2;SDS_P1;SDS_P2;PMS_P1;PMS_P2;Temp;Humidity;BMP_temperature;BMP_pressure;BME280_temperature;BME280_humidity;BME280_pressure;Samples;Min_cycle;Max_cycle;Signal;HPM_P1;HPM_P2
2022/07/09 00:00:06;;;;;;;7.25;6.25;;;;;;;16.83;75.21;102776.75;5053284;28;20037;-80
2022/07/09 00:02:34;;;;;;;11.35;6.22;;;;;;;16.84;75.61;102778.47;5060710;28;20116;-79
2022/07/09 00:05:00;;;;;;;8.82;7.05;;;;;;;16.78;74.96;102771.69;5062930;28;20043;-80
2022/07/09 00:07:26;;;;;;;11.07;6.82;;;;;;;16.75;75.42;102768.38;5061880;28;20063;-80
2022/07/09 00:09:52;;;;;;;10.57;6.72;;;;;;;16.70;76.01;102771.38;5053885;28;20029;-81
2022/07/09 00:12:17;;;;;;;8.35;5.95;;;;;;;16.74;75.54;102778.28;5066249;28;20020;-80
2022/07/09 00:14:42;;;;;;;8.23;6.33;;;;;;;16.66;75.82;102775.28;5066158;28;20033;-80
2022/07/09 00:17:07;;;;;;;8.05;5.57;;;;;;;16.68;75.73;102769.81;5065036;28;20295;-80
2022/07/09 00:19:33;;;;;;;8.02;5.50;;;;;;;16.69;75.45;102772.38;5065443;28;20028;-80
2022/07/09 00:21:58;;;;;;;8.63;6.03;;;;;;;16.64;75.87;102769.19;5057927;28;20040;-80
2022/07/09 00:24:23;;;;;;;9.30;5.90;;;;;;;16.61;75.73;102770.22;5063077;28;20021;-80
2022/07/09 00:26:49;;;;;;;8.40;6.10;;;;;;;16.58;75.91;102766.91;5075701;28;20746;-80
2022/07/09 00:29:14;;;;;;;9.63;5.50;;;;;;;16.55;76.05;102767.13;5057510;28;20117;-80
2022/07/09 00:31:39;;;;;;;7.95;5.70;;;;;;;16.53;76.03;102767.25;5063216;28;20287;-80
2022/07/09 00:34:04;;;;;;;10.02;6.28;;;;;;;16.50;76.42;102771.97;5063651;28;20383;-80
2022/07/09 00:36:30;;;;;;;10.63;6.40;;;;;;;16.42;76.88;102762.66;5063590;28;20094;-80
2022/07/09 00:38:55;;;;;;;10.30;6.00;;;;;;;16.39;76.93;102759.34;5062382;28;20291;-81
2022/07/09 00:41:20;;;;;;;8.20;6.00;;;;;;;16.41;76.63;102762.75;5075879;28;20279;-80
2022/07/09 00:43:48;;;;;;;7.47;5.72;;;;;;;16.37;76.65;102764.81;5064659;28;20460;-79
2022/07/09 00:46:13;;;;;;;7.50;5.82;;;;;;;16.28;77.18;102762.75;5045103;28;20029;-80
2022/07/09 00:48:39;;;;;;;8.20;6.20;;;;;;;16.31;76.88;102765.22;5061228;28;20098;-80
2022/07/09 00:53:32;;;;;;;10.40;6.65;;;;;;;16.30;77.00;102768.03;5054972;28;20324;-43
2022/07/09 00:55:58;;;;;;;10.90;7.32;;;;;;;16.24;77.30;102758.59;5056506;28;20060;-44
2022/07/09 00:58:24;;;;;;;10.70;6.68;;;;;;;16.25;77.59;102763.84;5057190;28;20049;-44
2022/07/09 01:00:49;;;;;;;10.25;6.80;;;;;;;16.19;77.59;102768.78;5057048;28;20029;-44
2022/07/09 01:03:15;;;;;;;9.88;7.28;;;;;;;16.17;77.31;102765.34;5056193;28;20049;-44
2022/07/09 01:05:40;;;;;;;14.95;7.50;;;;;;;16.12;77.79;102763.00;5055724;28;20033;-43
2022/07/09 01:08:07;;;;;;;8.52;7.20;;;;;;;16.10;78.03;102764.91;5052762;28;20033;-44
2022/07/09 01:10:34;;;;;;;10.13;7.57;;;;;;;16.09;77.89;102757.84;5052866;28;20114;-43
2022/07/09 01:13:00;;;;;;;9.57;7.47;;;;;;;16.08;77.86;102754.28;5035126;28;20030;-47
2022/07/09 01:15:25;;;;;;;10.05;7.13;;;;;;;16.03;78.01;102755.59;5053306;28;20216;-44
2022/07/09 01:17:52;;;;;;;14.10;7.40;;;;;;;16.00;78.37;102742.38;5052644;28;20493;-45
2022/07/09 01:20:24;;;;;;;9.55;6.93;;;;;;;16.00;78.04;102750.44;5053479;28;20055;-46
2022/07/09 01:22:50;;;;;;;10.57;7.43;;;;;;;15.92;78.23;102745.63;5054518;28;20030;-44
2022/07/09 01:25:17;;;;;;;8.77;7.00;;;;;;;15.91;78.36;102749.25;5053345;28;20048;-44
2022/07/09 01:27:43;;;;;;;8.68;6.93;;;;;;;15.89;77.52;102741.31;5052768;28;20032;-44
2022/07/09 01:30:09;;;;;;;9.13;7.00;;;;;;;15.83;77.98;102741.72;5052211;28;20470;-45
2022/07/09 01:32:34;;;;;;;10.52;8.00;;;;;;;15.84;77.96;102727.38;5052168;28;20537;-44
2022/07/09 01:35:00;;;;;;;9.43;7.60;;;;;;;15.84;77.85;102731.91;5052781;28;20032;-44
2022/07/09 01:37:25;;;;;;;10.00;7.88;;;;;;;15.81;78.49;102729.41;5052692;28;20053;-44
2022/07/09 01:39:51;;;;;;;9.50;8.47;;;;;;;15.74;78.72;102728.94;5052363;28;20033;-44
2022/07/09 01:42:17;;;;;;;12.50;8.57;;;;;;;15.74;78.93;102718.25;5050678;28;20292;-44
2022/07/09 01:44:43;;;;;;;9.25;7.40;;;;;;;15.70;78.80;102719.41;5052347;28;20040;-46
2022/07/09 01:47:09;;;;;;;8.93;7.68;;;;;;;15.69;78.62;102718.53;5034414;28;20398;-44
2022/07/09 01:49:34;;;;;;;11.25;7.97;;;;;;;15.71;78.57;102727.31;5051027;28;20097;-45
2022/07/09 01:51:59;;;;;;;11.03;7.47;;;;;;;15.67;78.59;102719.59;5051630;28;20064;-44
2022/07/09 01:54:24;;;;;;;10.27;6.93;;;;;;;15.64;78.50;102712.66;5033651;28;20331;-47
2022/07/09 01:56:50;;;;;;;8.02;7.10;;;;;;;15.61;78.39;102720.88;5051367;28;20037;-45
2022/07/09 01:59:15;;;;;;;8.45;6.78;;;;;;;15.61;78.71;102718.22;5051164;28;20363;-47
2022/07/09 02:01:40;;;;;;;8.55;7.43;;;;;;;15.60;78.49;102718.31;5051523;28;20033;-44
2022/07/09 02:04:06;;;;;;;10.57;8.70;;;;;;;15.52;78.83;102711.66;5051181;28;20029;-44
2022/07/09 02:06:31;;;;;;;10.52;7.90;;;;;;;15.53;78.58;102720.53;5051146;28;20037;-47
2022/07/09 02:08:56;;;;;;;10.33;8.27;;;;;;;15.50;79.02;102718.06;5049656;28;20037;-44
2022/07/09 02:11:21;;;;;;;9.23;7.47;;;;;;;15.49;78.88;102711.03;5050432;28;20359;-45
2022/07/09 02:13:47;;;;;;;8.70;7.82;;;;;;;15.45;79.02;102714.84;5049415;28;20033;-48
2022/07/09 02:16:12;;;;;;;9.88;8.15;;;;;;;15.38;78.85;102703.69;5049827;28;20036;-46
2022/07/09 02:18:38;;;;;;;9.10;7.75;;;;;;;15.39;78.46;102709.91;5051896;28;20026;-44
2022/07/09 02:21:05;;;;;;;10.07;8.43;;;;;;;15.32;79.10;102707.66;5051983;28;20025;-44
2022/07/09 02:23:30;;;;;;;9.30;8.35;;;;;;;15.33;79.41;102705.81;5048867;28;20414;-45
2022/07/09 02:25:55;;;;;;;10.70;8.43;;;;;;;15.35;78.64;102707.47;5050941;28;20034;-45
2022/07/09 02:28:20;;;;;;;11.20;8.67;;;;;;;15.30;79.10;102706.88;5035249;28;20124;-45
2022/07/09 02:30:46;;;;;;;10.03;8.00;;;;;;;15.25;79.73;102705.47;5052296;28;20300;-45
2022/07/09 02:33:11;;;;;;;8.77;7.88;;;;;;;15.25;78.90;102700.13;5045160;28;20292;-44
2022/07/09 02:35:37;;;;;;;9.90;8.07;;;;;;;15.23;78.79;102696.69;5036370;28;20513;-43
2022/07/09 02:38:02;;;;;;;9.48;7.57;;;;;;;15.14;79.11;102700.84;5045384;28;20033;-45
2022/07/09 02:40:27;;;;;;;11.43;8.77;;;;;;;15.12;79.16;102703.63;5052024;28;20044;-44
2022/07/09 02:42:52;;;;;;;8.75;7.85;;;;;;;15.07;79.14;102699.53;5034368;28;20033;-45
2022/07/09 02:45:18;;;;;;;9.75;7.88;;;;;;;15.07;79.24;102704.88;5052030;28;20030;-44
2022/07/09 02:47:43;;;;;;;9.85;8.23;;;;;;;15.00;79.50;102701.75;5051998;28;20037;-44
2022/07/09 02:50:09;;;;;;;8.95;7.88;;;;;;;14.98;79.57;102696.50;5051393;28;20036;-46
2022/07/09 02:52:34;;;;;;;12.18;8.73;;;;;;;14.92;79.33;102688.91;5045865;28;20055;-45
2022/07/09 02:54:59;;;;;;;9.68;8.68;;;;;;;14.97;79.27;102691.25;5071627;28;20025;-45
2022/07/09 02:57:25;;;;;;;9.70;8.60;;;;;;;14.92;79.39;102688.00;5071164;28;20057;-44
2022/07/09 02:59:50;;;;;;;11.20;8.30;;;;;;;14.93;79.13;102684.41;5071777;28;20067;-45
2022/07/09 03:02:15;;;;;;;9.80;8.15;;;;;;;14.89;78.74;102683.75;5071997;28;20029;-44
2022/07/09 03:04:41;;;;;;;9.75;8.60;;;;;;;14.84;79.28;102683.19;5071549;28;20033;-45
2022/07/09 03:07:06;;;;;;;10.48;9.07;;;;;;;14.86;79.41;102683.94;5071304;28;20032;-45
2022/07/09 03:09:31;;;;;;;11.53;9.70;;;;;;;14.86;79.01;102683.09;5070668;28;20063;-45
2022/07/09 03:11:57;;;;;;;13.27;9.60;;;;;;;14.83;79.58;102689.47;5071080;28;20374;-44
2022/07/09 03:14:22;;;;;;;12.50;11.02;;;;;;;14.85;79.17;102687.56;5071216;28;20067;-45
2022/07/09 03:16:47;;;;;;;13.40;11.57;;;;;;;14.82;79.56;102678.88;5070952;28;20051;-45
2022/07/09 03:19:13;;;;;;;14.05;12.73;;;;;;;14.81;79.49;102680.72;5070254;28;20056;-45
2022/07/09 03:21:39;;;;;;;17.83;13.48;;;;;;;14.79;80.07;102693.34;5071030;28;20029;-45
2022/07/09 03:24:04;;;;;;;14.45;12.95;;;;;;;14.78;79.84;102686.25;5072251;28;20079;-45
2022/07/09 03:26:30;;;;;;;18.60;13.88;;;;;;;14.75;80.61;102678.44;5072704;28;20016;-44
2022/07/09 03:28:55;;;;;;;15.65;14.05;;;;;;;14.72;80.50;102675.94;5072567;28;20047;-48
2022/07/09 03:31:20;;;;;;;19.30;15.35;;;;;;;14.69;80.23;102682.38;5072379;28;20039;-45
2022/07/09 03:33:46;;;;;;;19.30;15.50;;;;;;;14.70;80.99;102677.88;5073374;28;20029;-45
2022/07/09 03:36:11;;;;;;;19.52;16.15;;;;;;;14.65;80.97;102678.16;5071256;28;20295;-45
2022/07/09 03:38:36;;;;;;;20.60;16.67;;;;;;;14.64;81.68;102675.59;5071256;28;20028;-45
2022/07/09 03:41:01;;;;;;;20.60;17.13;;;;;;;14.66;81.49;102676.38;5070514;28;20326;-44
2022/07/09 03:43:27;;;;;;;20.02;16.35;;;;;;;14.66;81.88;102679.03;5069849;28;20037;-46
2022/07/09 03:45:52;;;;;;;19.02;16.55;;;;;;;14.65;82.03;102682.66;5070603;28;20079;-44
2022/07/09 03:48:17;;;;;;;21.63;17.90;;;;;;;14.63;82.18;102687.25;5071485;28;20033;-44
2022/07/09 03:50:43;;;;;;;21.13;17.27;;;;;;;14.65;81.91;102688.00;5054476;28;20024;-44
2022/07/09 03:53:08;;;;;;;20.88;17.00;;;;;;;14.63;82.02;102688.09;5034267;28;20057;-45
2022/07/09 03:55:34;;;;;;;20.02;17.85;;;;;;;14.57;82.18;102685.78;5049259;28;20022;-44
2022/07/09 03:57:59;;;;;;;19.30;16.90;;;;;;;14.63;82.10;102685.44;5049507;28;20033;-46
2022/07/09 04:00:25;;;;;;;22.75;17.50;;;;;;;14.64;82.38;102689.84;5049459;28;20034;-44
2022/07/09 04:02:50;;;;;;;23.52;18.55;;;;;;;14.65;82.41;102683.50;5051550;28;20029;-46
2022/07/09 04:05:16;;;;;;;20.35;18.17;;;;;;;14.68;82.55;102680.63;5055790;28;20068;-45
2022/07/09 04:07:41;;;;;;;20.42;18.52;;;;;;;14.72;82.35;102678.63;5055566;28;20014;-44
2022/07/09 04:10:07;;;;;;;25.77;20.10;;;;;;;14.72;83.54;102683.97;5055315;28;20397;-45
2022/07/09 04:12:32;;;;;;;24.45;19.27;;;;;;;14.74;83.45;102676.72;5055363;28;20037;-44
2022/07/09 04:14:58;;;;;;;26.48;20.02;;;;;;;14.72;83.77;102676.81;5054524;28;20049;-43
2022/07/09 04:17:23;;;;;;;25.95;20.25;;;;;;;14.73;83.66;102677.66;5054929;28;20033;-44
2022/07/09 04:19:48;;;;;;;22.13;19.80;;;;;;;14.77;83.66;102676.50;5054918;28;20089;-45
2022/07/09 04:22:13;;;;;;;24.95;20.25;;;;;;;14.78;83.61;102678.22;5055566;28;20010;-43
2022/07/09 04:24:39;;;;;;;26.40;21.20;;;;;;;14.77;83.84;102671.16;5053596;28;20044;-45
2022/07/09 04:27:04;;;;;;;27.35;21.55;;;;;;;14.80;83.61;102671.84;5054872;28;20356;-44
2022/07/09 04:29:30;;;;;;;24.13;21.20;;;;;;;14.82;83.79;102662.84;5054684;28;20009;-45
2022/07/09 04:31:55;;;;;;;25.70;22.95;;;;;;;14.86;84.21;102661.69;5054150;28;20017;-44
2022/07/09 04:34:20;;;;;;;29.05;23.48;;;;;;;14.92;83.87;102666.63;5053879;28;20025;-44
2022/07/09 04:36:46;;;;;;;30.42;25.08;;;;;;;14.91;84.37;102663.09;5054239;28;20006;-43
2022/07/09 04:39:11;;;;;;;29.20;24.33;;;;;;;14.96;84.36;102668.13;5053753;28;20017;-46
2022/07/09 04:41:36;;;;;;;30.58;24.88;;;;;;;15.04;84.14;102667.63;5055747;28;20016;-43
2022/07/09 04:44:02;;;;;;;31.98;26.15;;;;;;;15.04;84.46;102662.25;5059249;28;20048;-43
2022/07/09 04:46:30;;;;;;;27.77;24.95;;;;;;;15.10;83.79;102665.38;5058144;28;20023;-45
2022/07/09 04:48:55;;;;;;;29.92;26.77;;;;;;;15.17;84.67;102665.84;5058945;28;20029;-45
2022/07/09 04:51:21;;;;;;;31.60;28.27;;;;;;;15.24;84.76;102658.25;5058916;28;20033;-44
2022/07/09 04:53:46;;;;;;;31.02;27.30;;;;;;;15.28;85.26;102667.81;5060169;28;20034;-46
2022/07/09 04:56:11;;;;;;;30.40;26.70;;;;;;;15.34;84.98;102664.72;5059890;28;20063;-43
2022/07/09 04:58:37;;;;;;;32.03;28.65;;;;;;;15.40;85.00;102671.47;5042177;28;20024;-44
2022/07/09 05:01:03;;;;;;;31.20;28.05;;;;;;;15.42;84.45;102661.50;5059420;28;20018;-44
2022/07/09 05:03:29;;;;;;;30.17;26.92;;;;;;;15.49;83.99;102665.50;5059617;28;20065;-43
2022/07/09 05:05:54;;;;;;;32.67;28.80;;;;;;;15.51;84.45;102667.09;5059567;28;20021;-44
2022/07/09 05:08:19;;;;;;;32.25;28.80;;;;;;;15.56;84.34;102658.75;5059493;28;20053;-44
2022/07/09 05:10:45;;;;;;;33.00;29.55;;;;;;;15.62;84.48;102666.38;5058894;28;20030;-45
2022/07/09 05:13:10;;;;;;;35.33;31.52;;;;;;;15.60;84.70;102646.84;5059839;28;20033;-44
2022/07/09 05:15:35;;;;;;;37.10;31.00;;;;;;;15.66;85.19;102661.66;5059733;28;20029;-44
2022/07/09 05:18:01;;;;;;;34.80;30.85;;;;;;;15.71;85.09;102656.81;5042135;28;20018;-44
2022/07/09 05:20:27;;;;;;;32.15;29.02;;;;;;;15.79;84.66;102662.53;5042463;28;20026;-44
2022/07/09 05:22:52;;;;;;;33.50;29.55;;;;;;;15.83;85.02;102661.34;5059508;28;20033;-45
2022/07/09 05:25:18;;;;;;;35.38;31.40;;;;;;;15.87;84.50;102657.50;5059642;28;20048;-44
2022/07/09 05:27:45;;;;;;;33.67;30.02;;;;;;;15.90;83.92;102661.78;5059277;28;20038;-46
2022/07/09 05:30:13;;;;;;;33.70;30.10;;;;;;;15.96;84.49;102656.00;5059666;28;20089;-44
2022/07/09 05:32:39;;;;;;;34.28;30.48;;;;;;;16.02;84.25;102652.00;5059873;28;20037;-46
2022/07/09 05:35:05;;;;;;;34.55;30.95;;;;;;;16.03;84.27;102656.41;5059013;28;20033;-43
2022/07/09 05:37:30;;;;;;;36.90;30.33;;;;;;;16.08;84.15;102656.94;5059760;28;20009;-43
2022/07/09 05:40:00;;;;;;;34.37;30.77;;;;;;;16.14;83.83;102664.56;5059579;28;20021;-43
2022/07/09 05:42:25;;;;;;;34.05;30.35;;;;;;;16.15;84.24;102660.03;5058952;28;20292;-45
2022/07/09 05:44:50;;;;;;;34.40;29.35;;;;;;;16.24;83.73;102659.41;5058238;28;20064;-44
2022/07/09 05:47:16;;;;;;;33.57;30.10;;;;;;;16.27;83.71;102651.97;5058918;28;20026;-44
2022/07/09 05:49:42;;;;;;;34.80;30.85;;;;;;;16.30;84.12;102658.94;5058881;28;20317;-44
2022/07/09 05:52:07;;;;;;;32.47;28.95;;;;;;;16.33;84.08;102650.66;5057560;28;20045;-43
2022/07/09 05:54:32;;;;;;;33.40;29.87;;;;;;;16.36;84.20;102645.09;5057998;28;20044;-46
2022/07/09 05:56:57;;;;;;;34.05;29.10;;;;;;;16.40;84.06;102643.91;5058698;28;20288;-44
2022/07/09 05:59:23;;;;;;;32.30;29.02;;;;;;;16.50;83.79;102654.81;5041090;28;20021;-49
2022/07/09 06:01:48;;;;;;;34.03;30.25;;;;;;;16.55;83.66;102657.16;5059238;28;20032;-45
2022/07/09 06:04:14;;;;;;;31.73;28.40;;;;;;;16.63;83.58;102654.75;5059466;28;20089;-44
2022/07/09 06:06:39;;;;;;;30.45;27.30;;;;;;;16.69;83.63;102654.31;5058219;28;20041;-43
2022/07/09 06:09:04;;;;;;;32.67;29.05;;;;;;;16.75;83.55;102653.88;5058888;28;20020;-44
2022/07/09 06:11:30;;;;;;;32.15;28.83;;;;;;;16.85;83.24;102656.75;5057491;28;20031;-45
2022/07/09 06:13:55;;;;;;;31.93;28.57;;;;;;;16.99;83.44;102656.56;5054845;28;20038;-43
2022/07/09 06:16:20;;;;;;;32.35;28.77;;;;;;;17.13;82.91;102663.56;5036652;28;20292;-44
2022/07/09 06:18:46;;;;;;;32.10;28.50;;;;;;;17.23;82.89;102663.75;5036488;28;20037;-45
2022/07/09 06:21:11;;;;;;;31.88;28.58;;;;;;;17.36;82.00;102663.66;5053620;28;20045;-43
2022/07/09 06:23:37;;;;;;;31.45;28.35;;;;;;;17.49;82.43;102661.75;5054523;28;20033;-42
2022/07/09 06:26:06;;;;;;;30.83;27.63;;;;;;;17.55;82.24;102650.53;5054076;28;20037;-43
2022/07/09 06:28:31;;;;;;;33.15;29.10;;;;;;;17.67;81.86;102650.53;5037224;28;20013;-43
2022/07/09 06:30:56;;;;;;;30.95;27.65;;;;;;;17.77;81.44;102659.59;5052961;28;20033;-45
2022/07/09 06:33:22;;;;;;;29.55;26.48;;;;;;;17.83;81.23;102658.25;5054363;28;20032;-42
2022/07/09 06:35:47;;;;;;;30.83;27.40;;;;;;;17.87;80.85;102667.81;5054078;28;20025;-43
2022/07/09 06:38:12;;;;;;;30.05;26.95;;;;;;;17.94;80.54;102664.53;5052695;28;20044;-45
2022/07/09 06:40:38;;;;;;;33.30;28.33;;;;;;;17.97;81.13;102662.56;5053265;28;20117;-44
2022/07/09 06:43:04;;;;;;;31.85;28.23;;;;;;;18.03;80.91;102660.25;5051721;28;20044;-43
2022/07/09 06:45:29;;;;;;;30.75;27.38;;;;;;;18.15;81.18;102666.47;5053128;28;20026;-43
2022/07/09 06:47:54;;;;;;;31.70;28.30;;;;;;;18.22;81.49;102666.84;5053099;28;20033;-43
2022/07/09 06:50:20;;;;;;;31.87;27.70;;;;;;;18.36;80.38;102663.06;5048987;28;20044;-46
2022/07/09 06:52:46;;;;;;;29.08;25.98;;;;;;;18.61;80.15;102667.28;5050877;28;20342;-45
2022/07/09 06:55:11;;;;;;;30.70;27.58;;;;;;;18.78;79.70;102668.59;5051317;28;20104;-44
2022/07/09 06:57:37;;;;;;;29.45;26.08;;;;;;;18.99;78.89;102661.44;5051001;28;20032;-43
2022/07/09 07:00:05;;;;;;;29.80;26.60;;;;;;;19.10;78.85;102657.00;5051006;28;20419;-44
2022/07/09 07:02:30;;;;;;;28.60;25.45;;;;;;;19.42;77.96;102656.97;5051980;28;20056;-45
2022/07/09 07:04:55;;;;;;;27.33;24.42;;;;;;;19.72;76.71;102653.44;5050756;28;20045;-43
2022/07/09 07:07:21;;;;;;;25.65;22.52;;;;;;;19.94;75.29;102659.69;5052028;28;20044;-43
2022/07/09 07:09:46;;;;;;;25.83;23.15;;;;;;;20.04;74.52;102671.38;5052394;28;20037;-44
2022/07/09 07:12:11;;;;;;;25.57;22.73;;;;;;;20.20;75.01;102672.69;5053018;28;20104;-44
2022/07/09 07:14:37;;;;;;;25.30;20.52;;;;;;;20.36;73.58;102661.41;5052392;28;20334;-45
2022/07/09 07:17:04;;;;;;;22.50;20.15;;;;;;;20.51;73.27;102665.41;5053734;28;20032;-44
2022/07/09 07:19:29;;;;;;;21.38;19.23;;;;;;;20.70;72.07;102670.03;5051471;28;20250;-47
2022/07/09 07:21:54;;;;;;;22.92;19.40;;;;;;;20.81;71.09;102667.19;5052031;28;20527;-44
2022/07/09 07:24:20;;;;;;;21.80;19.43;;;;;;;20.98;70.06;102656.69;5033248;28;20088;-45
2022/07/09 07:26:45;;;;;;;23.67;19.02;;;;;;;21.27;69.24;102656.69;5052455;28;20331;-46
2022/07/09 07:29:10;;;;;;;23.53;19.00;;;;;;;21.55;68.60;102657.66;5051985;28;20041;-46
2022/07/09 07:31:36;;;;;;;21.08;17.92;;;;;;;21.80;69.13;102661.56;5052947;28;20319;-43
2022/07/09 07:34:01;;;;;;;20.52;17.98;;;;;;;22.18;66.21;102654.31;5052239;28;20060;-46
2022/07/09 07:36:27;;;;;;;20.02;17.67;;;;;;;22.34;66.04;102652.81;5052250;28;20068;-44
2022/07/09 07:38:52;;;;;;;20.20;17.40;;;;;;;22.60;64.58;102655.66;5052619;28;20021;-45
2022/07/09 07:41:18;;;;;;;19.55;17.45;;;;;;;22.66;63.91;102659.59;5042378;28;20131;-44
2022/07/09 07:43:44;;;;;;;20.08;17.75;;;;;;;22.86;62.68;102660.31;5053152;28;20013;-46
2022/07/09 07:46:09;;;;;;;19.90;17.73;;;;;;;22.96;62.62;102660.22;5048094;28;20109;-44
2022/07/09 07:48:35;;;;;;;20.60;17.23;;;;;;;22.97;62.07;102654.66;5033549;28;20013;-45
2022/07/09 07:51:01;;;;;;;20.55;16.27;;;;;;;23.04;61.89;102663.00;5030311;28;20025;-47
2022/07/09 07:53:27;;;;;;;22.35;17.17;;;;;;;22.97;62.40;102661.94;5045557;28;20045;-44
2022/07/09 07:55:52;;;;;;;24.30;18.42;;;;;;;22.91;62.27;102672.41;5039324;28;20044;-45
2022/07/09 07:58:17;;;;;;;20.80;18.47;;;;;;;23.16;61.23;102669.91;5038203;28;20025;-45
2022/07/09 08:00:42;;;;;;;20.40;16.63;;;;;;;23.26;61.38;102667.13;5029982;28;20308;-43
2022/07/09 08:03:08;;;;;;;19.98;17.25;;;;;;;23.43;60.46;102659.94;5017170;28;20108;-42
2022/07/09 08:05:33;;;;;;;21.63;17.90;;;;;;;23.50;61.00;102660.16;5035224;28;20484;-44
2022/07/09 08:07:58;;;;;;;21.02;18.13;;;;;;;23.49;59.88;102659.31;5017535;28;20021;-43
2022/07/09 08:10:25;;;;;;;21.98;16.83;;;;;;;23.60;60.33;102666.38;5016747;28;20025;-44
2022/07/09 08:12:51;;;;;;;20.58;17.30;;;;;;;23.62;60.11;102653.50;5038595;28;20025;-43
2022/07/09 08:15:16;;;;;;;20.75;17.30;;;;;;;23.53;60.61;102655.31;5042168;28;20036;-43
2022/07/09 08:17:42;;;;;;;22.70;17.42;;;;;;;23.77;60.09;102645.59;5026517;28;20060;-43
2022/07/09 08:20:08;;;;;;;20.80;16.30;;;;;;;23.92;58.46;102644.00;5043376;28;20455;-44
2022/07/09 08:22:34;;;;;;;23.63;16.35;;;;;;;23.89;58.02;102640.78;5042770;28;20272;-44
2022/07/09 08:24:59;;;;;;;20.85;16.83;;;;;;;23.99;57.89;102625.22;5042967;28;20046;-45
2022/07/09 08:27:24;;;;;;;26.45;16.20;;;;;;;24.18;57.88;102633.09;5043232;28;20021;-45
2022/07/09 08:29:49;;;;;;;23.85;17.42;;;;;;;24.21;57.46;102629.19;5041708;28;20025;-45
2022/07/09 08:32:15;;;;;;;21.80;16.67;;;;;;;24.23;57.22;102631.75;5042118;28;20049;-43
2022/07/09 08:34:41;;;;;;;19.33;14.60;;;;;;;24.36;56.90;102635.72;5041110;28;20331;-43
2022/07/09 08:37:06;;;;;;;20.77;14.18;;;;;;;24.25;57.02;102627.00;5040846;28;20021;-43
2022/07/09 08:39:31;;;;;;;16.33;14.18;;;;;;;24.37;56.70;102618.38;5053359;28;20028;-46
2022/07/09 08:41:58;;;;;;;15.67;13.77;;;;;;;24.48;55.60;102614.53;5058265;28;20022;-45
2022/07/09 08:44:29;;;;;;;17.80;14.23;;;;;;;24.75;55.94;102610.66;5056776;28;20295;-44
2022/07/09 08:46:56;;;;;;;17.73;14.07;;;;;;;24.90;54.29;102612.72;5057120;28;20026;-44
2022/07/09 08:49:24;;;;;;;17.02;14.18;;;;;;;24.89;54.57;102611.00;5058618;28;20031;-49
2022/07/09 08:51:50;;;;;;;17.33;12.75;;;;;;;25.07;53.36;102619.00;5060411;28;20124;-44
2022/07/09 08:54:16;;;;;;;14.20;12.55;;;;;;;25.02;53.20;102608.63;5058451;28;20018;-45
2022/07/09 08:56:41;;;;;;;15.48;13.05;;;;;;;25.11;53.67;102604.91;5058612;28;20022;-45
2022/07/09 08:59:06;;;;;;;14.20;12.30;;;;;;;25.23;53.99;102610.84;5057365;28;20013;-48
2022/07/09 09:01:31;;;;;;;16.27;11.47;;;;;;;25.13;53.29;102612.88;5057486;28;20280;-48
2022/07/09 09:03:57;;;;;;;14.23;11.07;;;;;;;25.18;52.74;102613.22;5055085;28;20045;-44
2022/07/09 09:06:25;;;;;;;14.55;10.48;;;;;;;25.23;53.89;102607.25;5056585;28;20364;-45
2022/07/09 09:08:55;;;;;;;14.32;10.98;;;;;;;25.23;53.13;102605.41;5057175;28;20067;-44
2022/07/09 09:11:22;;;;;;;12.75;10.38;;;;;;;25.19;53.52;102609.47;5039850;28;20037;-47
2022/07/09 09:13:48;;;;;;;14.18;11.75;;;;;;;25.12;53.49;102614.75;5051431;28;20101;-44
2022/07/09 09:16:16;;;;;;;13.27;11.05;;;;;;;24.98;52.82;102617.28;5049153;28;20033;-45
2022/07/09 09:18:44;;;;;;;16.48;10.82;;;;;;;24.88;53.63;102618.31;5052840;28;20040;-46
2022/07/09 09:21:10;;;;;;;14.45;10.30;;;;;;;24.85;54.17;102607.78;5058347;28;20035;-44
2022/07/09 09:23:52;;;;;;;15.07;12.07;;;;;;;24.91;54.24;102601.69;5056338;28;20080;-43
2022/07/09 09:26:19;;;;;;;14.50;11.63;;;;;;;24.71;53.72;102603.00;5057389;28;20013;-43
2022/07/09 09:28:52;;;;;;;14.93;11.57;;;;;;;24.67;54.90;102602.50;5056931;28;20014;-46
2022/07/09 09:31:37;;;;;;;13.73;12.30;;;;;;;24.72;54.84;102599.28;5057024;28;20085;-43
2022/07/09 09:34:08;;;;;;;14.23;10.50;;;;;;;24.71;55.32;102608.44;5057712;28;20041;-48
2022/07/09 09:36:36;;;;;;;16.23;11.80;;;;;;;24.66;55.66;102605.38;5056527;28;20122;-44
2022/07/09 09:39:25;;;;;;;16.60;12.60;;;;;;;24.77;55.55;102596.91;5042020;28;20036;-45
2022/07/09 09:41:59;;;;;;;15.05;11.15;;;;;;;24.99;54.71;102595.38;5037604;28;20040;-44
2022/07/09 09:44:28;;;;;;;12.95;11.63;;;;;;;24.91;53.77;102601.69;5035768;28;20022;-44
2022/07/09 09:46:54;;;;;;;13.63;10.93;;;;;;;24.80;53.68;102587.56;5034880;28;20029;-44
2022/07/09 09:49:20;;;;;;;16.73;11.35;;;;;;;24.79;54.61;102602.19;5034669;28;20026;-44
2022/07/09 09:52:06;;;;;;;12.68;10.52;;;;;;;24.73;56.14;102600.97;5014186;28;20470;-45
2022/07/09 09:54:33;;;;;;;13.07;10.68;;;;;;;24.59;54.82;102602.50;5030742;28;20493;-44
2022/07/09 09:56:59;;;;;;;16.45;12.32;;;;;;;24.45;55.67;102603.09;5034525;28;20109;-45
2022/07/09 09:59:25;;;;;;;20.13;13.73;;;;;;;24.20;56.26;102594.94;5029602;28;20025;-44
2022/07/09 10:01:50;;;;;;;17.63;13.10;;;;;;;24.07;56.64;102606.25;5034088;28;20114;-43
2022/07/09 10:04:16;;;;;;;14.88;11.50;;;;;;;24.12;57.69;102603.06;5034669;28;20272;-43
2022/07/09 10:06:41;;;;;;;19.73;11.93;;;;;;;23.98;58.36;102599.06;5030717;28;20041;-46
2022/07/09 10:09:11;;;;;;;18.30;11.38;;;;;;;23.87;58.45;102599.41;5033893;28;20102;-43
2022/07/09 10:11:45;;;;;;;13.57;8.75;;;;;;;23.87;57.81;102599.41;5031122;28;20471;-42
2022/07/09 10:14:23;;;;;;;16.40;9.30;;;;;;;23.81;57.71;102601.72;5033981;28;20022;-45
2022/07/09 10:16:48;;;;;;;11.52;8.13;;;;;;;23.63;57.88;102595.50;5042510;28;20091;-48
2022/07/09 10:19:24;;;;;;;19.33;9.63;;;;;;;23.70;58.31;102602.00;5046726;28;20034;-45
2022/07/09 10:21:56;;;;;;;12.65;9.25;;;;;;;23.61;57.04;102598.38;5047548;28;20039;-46
2022/07/09 10:24:30;;;;;;;14.07;8.40;;;;;;;23.65;57.39;102597.03;5046010;28;20030;-43
2022/07/09 10:27:07;;;;;;;11.05;7.28;;;;;;;23.57;58.20;102596.16;5043486;28;20041;-44
2022/07/09 10:29:33;;;;;;;9.00;5.88;;;;;;;23.50;58.79;102597.78;5049501;28;20056;-46
2022/07/09 10:31:59;;;;;;;8.02;5.30;;;;;;;23.63;58.62;102596.38;5047689;28;20021;-44
2022/07/09 10:34:30;;;;;;;9.20;4.95;;;;;;;23.57;58.51;102599.72;5029592;28;20025;-48
2022/07/09 10:37:03;;;;;;;9.50;5.00;;;;;;;23.64;57.81;102597.22;5049141;28;20060;-48
2022/07/09 10:39:29;;;;;;;8.80;4.60;;;;;;;23.63;57.52;102596.38;5031106;28;20093;-43
2022/07/09 10:42:19;;;;;;;8.68;4.78;;;;;;;23.75;57.77;102590.66;5039211;28;20035;-45
2022/07/09 10:44:45;;;;;;;5.88;4.20;;;;;;;23.85;58.76;102586.00;5046895;28;20022;-46
2022/07/09 10:47:11;;;;;;;6.25;4.25;;;;;;;24.16;57.24;102593.53;5048487;28;20033;-45
2022/07/09 10:49:37;;;;;;;6.43;3.35;;;;;;;24.63;56.07;102584.84;5048089;28;20026;-44
2022/07/09 10:52:06;;;;;;;5.30;3.50;;;;;;;24.84;55.93;102588.94;5048606;28;20071;-41
2022/07/09 10:54:32;;;;;;;7.07;3.05;;;;;;;25.09;54.72;102590.59;5049000;28;20028;-45
2022/07/09 10:56:58;;;;;;;3.92;2.53;;;;;;;25.35;52.29;102586.88;5048175;28;20029;-43
2022/07/09 10:59:24;;;;;;;2.65;2.40;;;;;;;25.52;53.81;102582.22;5013175;28;20045;-42
2022/07/09 11:01:51;;;;;;;4.15;3.00;;;;;;;25.64;51.10;102582.69;5049037;28;20036;-41
2022/07/09 11:04:47;;;;;;;5.88;2.88;;;;;;;25.98;52.88;102585.16;5040793;28;20033;-41
2022/07/09 11:07:22;;;;;;;3.88;2.17;;;;;;;26.07;51.31;102590.56;5039638;28;20034;-44
2022/07/09 11:09:48;;;;;;;4.20;2.60;;;;;;;26.09;50.26;102578.44;5034601;28;20041;-42
2022/07/09 11:12:21;;;;;;;2.88;2.13;;;;;;;26.26;50.33;102581.06;5035619;28;20041;-42